Main page
METAR-TAF:

METAR-TAF

Airports :

Dimapur Airport

Dimapur, India

latitude: 25-53-02N, longitude: 093-46-16E, elevation: 148 m

Current weather observation

The report was made 47 minutes ago, at 03:00 UTC
Calm wind
Temperature 20°C
Humidity 73%
Pressure 1019 hPa
Visibility: 3500 m
Few clouds at a height of 2000 ft
haze

METAR: VEMR 030300Z 00000KT 3500 HZ FEW020 20/15 Q1019

Time: 09:17 (03:47 UTC)

Forecast

The report was made 1 hour and 47 minutes ago, at 02:00 UTC
Forecast valid from 03 at 03 UTC to 03 at 12 UTC
Wind kt from the North
Visibility: 2000 m
Few clouds at a height of 2000 ft
Scattered clouds at a height of 10000 ft
mist
Becoming
from 03 at 07 UTC to 03 at 09 UTC
Wind 5 kt from the East/Northeast
Visibility: 5000 m
haze

TAF: VEMR 030200Z 0303/0312 00000KT 2000 BR FEW020 SCT100 BECMG 0307/0309 06005KT 5000 HZ

Weather observations and forecasts of more than 4000 airports (METAR and TAF reports).

The available stations are represented by yellow and red dots on the map.

Hover mouse over dot to see the name of the station.

Then click to see weather observations and forecasts.

To change the map : click on the green buttons with a black cross to zoom in, on the green button with a dash to zoom out, or on the green arrows for adjacent maps.


METAR-TAF: